sensor_id;sensor_type;location;lat;lon;timestamp;P1;durP1;ratioP1;P2;durP2;ratioP2
84254;SDS011;74400;44.692;18.998;2024-02-28T00:00:59;13.75;;;7.38;;
84254;SDS011;74400;44.692;18.998;2024-02-28T00:03:24;15.00;;;6.88;;
84254;SDS011;74400;44.692;18.998;2024-02-28T00:05:50;12.00;;;6.72;;
84254;SDS011;74400;44.692;18.998;2024-02-28T00:08:15;15.20;;;6.68;;
84254;SDS011;74400;44.692;18.998;2024-02-28T00:10:42;12.30;;;6.35;;
84254;SDS011;74400;44.692;18.998;2024-02-28T00:13:07;12.63;;;6.38;;
84254;SDS011;74400;44.692;18.998;2024-02-28T00:15:33;13.13;;;5.97;;
84254;SDS011;74400;44.692;18.998;2024-02-28T00:17:59;9.90;;;5.93;;
84254;SDS011;74400;44.692;18.998;2024-02-28T00:20:24;12.57;;;5.18;;
84254;SDS011;74400;44.692;18.998;2024-02-28T00:22:52;12.60;;;5.70;;
84254;SDS011;74400;44.692;18.998;2024-02-28T00:25:18;15.18;;;6.20;;
84254;SDS011;74400;44.692;18.998;2024-02-28T00:27:44;13.65;;;6.53;;
84254;SDS011;74400;44.692;18.998;2024-02-28T00:30:09;14.48;;;7.30;;
84254;SDS011;74400;44.692;18.998;2024-02-28T00:32:35;15.52;;;7.05;;
84254;SDS011;74400;44.692;18.998;2024-02-28T00:35:01;16.23;;;7.35;;
84254;SDS011;74400;44.692;18.998;2024-02-28T00:37:26;12.35;;;7.05;;
84254;SDS011;74400;44.692;18.998;2024-02-28T00:39:52;13.45;;;6.38;;
84254;SDS011;74400;44.692;18.998;2024-02-28T00:42:18;12.52;;;6.50;;
84254;SDS011;74400;44.692;18.998;2024-02-28T00:44:43;10.40;;;6.03;;
84254;SDS011;74400;44.692;18.998;2024-02-28T00:47:09;11.50;;;6.15;;
84254;SDS011;74400;44.692;18.998;2024-02-28T00:49:35;11.73;;;7.03;;
84254;SDS011;74400;44.692;18.998;2024-02-28T00:52:01;12.90;;;7.00;;
84254;SDS011;74400;44.692;18.998;2024-02-28T00:54:26;12.30;;;6.82;;
84254;SDS011;74400;44.692;18.998;2024-02-28T00:56:52;20.27;;;8.23;;
84254;SDS011;74400;44.692;18.998;2024-02-28T00:59:18;15.35;;;7.72;;
84254;SDS011;74400;44.692;18.998;2024-02-28T01:01:43;16.15;;;7.05;;
84254;SDS011;74400;44.692;18.998;2024-02-28T01:04:09;14.70;;;7.10;;
84254;SDS011;74400;44.692;18.998;2024-02-28T01:06:35;12.88;;;6.82;;
84254;SDS011;74400;44.692;18.998;2024-02-28T01:09:00;15.15;;;7.57;;
84254;SDS011;74400;44.692;18.998;2024-02-28T01:11:26;17.38;;;7.20;;
84254;SDS011;74400;44.692;18.998;2024-02-28T01:13:52;13.35;;;6.20;;
84254;SDS011;74400;44.692;18.998;2024-02-28T01:16:17;11.52;;;6.32;;
84254;SDS011;74400;44.692;18.998;2024-02-28T01:18:43;11.80;;;6.13;;
84254;SDS011;74400;44.692;18.998;2024-02-28T01:21:08;15.95;;;7.40;;
84254;SDS011;74400;44.692;18.998;2024-02-28T01:23:34;11.70;;;6.40;;
84254;SDS011;74400;44.692;18.998;2024-02-28T01:26:00;11.20;;;6.50;;
84254;SDS011;74400;44.692;18.998;2024-02-28T01:28:29;15.07;;;7.10;;
84254;SDS011;74400;44.692;18.998;2024-02-28T01:30:55;14.18;;;7.03;;
84254;SDS011;74400;44.692;18.998;2024-02-28T01:33:20;19.00;;;9.02;;
84254;SDS011;74400;44.692;18.998;2024-02-28T01:35:46;31.00;;;14.48;;
84254;SDS011;74400;44.692;18.998;2024-02-28T01:38:13;31.73;;;15.48;;
84254;SDS011;74400;44.692;18.998;2024-02-28T01:40:38;31.67;;;14.98;;
84254;SDS011;74400;44.692;18.998;2024-02-28T01:43:07;29.80;;;15.00;;
84254;SDS011;74400;44.692;18.998;2024-02-28T01:45:33;31.98;;;16.25;;
84254;SDS011;74400;44.692;18.998;2024-02-28T01:47:59;29.77;;;14.60;;
84254;SDS011;74400;44.692;18.998;2024-02-28T01:50:25;26.48;;;12.38;;
84254;SDS011;74400;44.692;18.998;2024-02-28T01:52:51;21.52;;;11.32;;
84254;SDS011;74400;44.692;18.998;2024-02-28T01:55:17;17.42;;;9.73;;
84254;SDS011;74400;44.692;18.998;2024-02-28T01:57:42;9.95;;;6.50;;
84254;SDS011;74400;44.692;18.998;2024-02-28T02:00:08;12.18;;;6.57;;
84254;SDS011;74400;44.692;18.998;2024-02-28T02:02:35;7.63;;;6.05;;
84254;SDS011;74400;44.692;18.998;2024-02-28T02:05:01;13.63;;;6.80;;
84254;SDS011;74400;44.692;18.998;2024-02-28T02:07:26;13.18;;;6.70;;
84254;SDS011;74400;44.692;18.998;2024-02-28T02:09:52;11.90;;;6.68;;
84254;SDS011;74400;44.692;18.998;2024-02-28T02:12:19;14.60;;;6.45;;
84254;SDS011;74400;44.692;18.998;2024-02-28T02:14:48;13.63;;;6.50;;
84254;SDS011;74400;44.692;18.998;2024-02-28T02:17:14;12.07;;;6.22;;
84254;SDS011;74400;44.692;18.998;2024-02-28T02:19:40;11.00;;;6.22;;
84254;SDS011;74400;44.692;18.998;2024-02-28T02:22:05;10.43;;;6.18;;
84254;SDS011;74400;44.692;18.998;2024-02-28T02:24:33;12.30;;;6.50;;
84254;SDS011;74400;44.692;18.998;2024-02-28T02:26:59;14.40;;;7.72;;
84254;SDS011;74400;44.692;18.998;2024-02-28T02:29:25;20.63;;;10.10;;
84254;SDS011;74400;44.692;18.998;2024-02-28T02:31:53;17.67;;;9.48;;
84254;SDS011;74400;44.692;18.998;2024-02-28T02:34:19;17.02;;;7.90;;
84254;SDS011;74400;44.692;18.998;2024-02-28T02:36:45;14.68;;;6.95;;
84254;SDS011;74400;44.692;18.998;2024-02-28T02:39:10;14.02;;;6.88;;
84254;SDS011;74400;44.692;18.998;2024-02-28T02:41:36;13.88;;;6.97;;
84254;SDS011;74400;44.692;18.998;2024-02-28T02:44:02;16.50;;;6.47;;
84254;SDS011;74400;44.692;18.998;2024-02-28T02:46:27;35.08;;;13.82;;
84254;SDS011;74400;44.692;18.998;2024-02-28T02:48:53;39.67;;;14.30;;
84254;SDS011;74400;44.692;18.998;2024-02-28T02:51:19;38.42;;;16.00;;
84254;SDS011;74400;44.692;18.998;2024-02-28T02:53:45;45.38;;;16.75;;
84254;SDS011;74400;44.692;18.998;2024-02-28T02:56:10;34.75;;;15.48;;
84254;SDS011;74400;44.692;18.998;2024-02-28T02:58:36;36.92;;;15.23;;
84254;SDS011;74400;44.692;18.998;2024-02-28T03:01:02;50.53;;;22.77;;
84254;SDS011;74400;44.692;18.998;2024-02-28T03:03:27;42.88;;;18.13;;
84254;SDS011;74400;44.692;18.998;2024-02-28T03:05:53;28.02;;;12.40;;
84254;SDS011;74400;44.692;18.998;2024-02-28T03:08:19;43.78;;;20.67;;
84254;SDS011;74400;44.692;18.998;2024-02-28T03:10:44;33.30;;;14.23;;
84254;SDS011;74400;44.692;18.998;2024-02-28T03:13:10;29.92;;;13.15;;
84254;SDS011;74400;44.692;18.998;2024-02-28T03:15:35;29.60;;;13.65;;
84254;SDS011;74400;44.692;18.998;2024-02-28T03:18:01;28.65;;;11.55;;
84254;SDS011;74400;44.692;18.998;2024-02-28T03:20:27;26.73;;;12.48;;
84254;SDS011;74400;44.692;18.998;2024-02-28T03:22:53;46.60;;;20.20;;
84254;SDS011;74400;44.692;18.998;2024-02-28T03:25:18;51.45;;;24.05;;
84254;SDS011;74400;44.692;18.998;2024-02-28T03:27:44;44.05;;;19.67;;
84254;SDS011;74400;44.692;18.998;2024-02-28T03:30:09;35.08;;;14.23;;
84254;SDS011;74400;44.692;18.998;2024-02-28T03:32:35;19.25;;;8.98;;
84254;SDS011;74400;44.692;18.998;2024-02-28T03:35:01;13.25;;;7.47;;
84254;SDS011;74400;44.692;18.998;2024-02-28T03:37:26;15.55;;;7.78;;
84254;SDS011;74400;44.692;18.998;2024-02-28T03:39:52;12.60;;;6.43;;
84254;SDS011;74400;44.692;18.998;2024-02-28T03:42:18;12.63;;;6.35;;
84254;SDS011;74400;44.692;18.998;2024-02-28T03:44:44;17.13;;;7.03;;
84254;SDS011;74400;44.692;18.998;2024-02-28T03:47:09;13.73;;;6.70;;
84254;SDS011;74400;44.692;18.998;2024-02-28T03:49:35;12.90;;;6.65;;
84254;SDS011;74400;44.692;18.998;2024-02-28T03:52:01;13.73;;;6.68;;
84254;SDS011;74400;44.692;18.998;2024-02-28T03:54:26;10.90;;;7.20;;
84254;SDS011;74400;44.692;18.998;2024-02-28T03:56:52;10.85;;;5.63;;
84254;SDS011;74400;44.692;18.998;2024-02-28T03:59:18;10.25;;;6.10;;
84254;SDS011;74400;44.692;18.998;2024-02-28T04:01:44;13.43;;;6.57;;
84254;SDS011;74400;44.692;18.998;2024-02-28T04:04:09;10.93;;;5.95;;
84254;SDS011;74400;44.692;18.998;2024-02-28T04:06:35;11.25;;;5.63;;
84254;SDS011;74400;44.692;18.998;2024-02-28T04:09:01;8.55;;;5.55;;
84254;SDS011;74400;44.692;18.998;2024-02-28T04:11:28;9.73;;;4.95;;
84254;SDS011;74400;44.692;18.998;2024-02-28T04:13:53;10.18;;;5.10;;
84254;SDS011;74400;44.692;18.998;2024-02-28T04:16:19;10.80;;;5.78;;
84254;SDS011;74400;44.692;18.998;2024-02-28T04:18:45;10.25;;;5.63;;
84254;SDS011;74400;44.692;18.998;2024-02-28T04:21:10;12.20;;;5.60;;
84254;SDS011;74400;44.692;18.998;2024-02-28T04:23:36;9.27;;;4.75;;
84254;SDS011;74400;44.692;18.998;2024-02-28T04:26:03;9.32;;;4.43;;
84254;SDS011;74400;44.692;18.998;2024-02-28T04:28:29;7.25;;;4.43;;
84254;SDS011;74400;44.692;18.998;2024-02-28T04:30:55;7.90;;;4.57;;
84254;SDS011;74400;44.692;18.998;2024-02-28T04:33:20;10.40;;;5.20;;
84254;SDS011;74400;44.692;18.998;2024-02-28T04:35:46;9.02;;;4.90;;
84254;SDS011;74400;44.692;18.998;2024-02-28T04:38:12;10.48;;;5.38;;
84254;SDS011;74400;44.692;18.998;2024-02-28T04:40:37;9.35;;;5.20;;
84254;SDS011;74400;44.692;18.998;2024-02-28T04:43:03;9.38;;;5.32;;
84254;SDS011;74400;44.692;18.998;2024-02-28T04:45:29;15.30;;;5.82;;
84254;SDS011;74400;44.692;18.998;2024-02-28T04:47:55;10.90;;;5.75;;
84254;SDS011;74400;44.692;18.998;2024-02-28T04:50:22;11.32;;;6.18;;
84254;SDS011;74400;44.692;18.998;2024-02-28T04:52:48;11.02;;;7.03;;
84254;SDS011;74400;44.692;18.998;2024-02-28T04:55:14;11.60;;;5.85;;
84254;SDS011;74400;44.692;18.998;2024-02-28T04:57:40;10.77;;;5.93;;
84254;SDS011;74400;44.692;18.998;2024-02-28T05:00:06;10.68;;;6.13;;
84254;SDS011;74400;44.692;18.998;2024-02-28T05:02:33;10.77;;;5.38;;
84254;SDS011;74400;44.692;18.998;2024-02-28T05:04:59;8.02;;;4.65;;
84254;SDS011;74400;44.692;18.998;2024-02-28T05:07:25;9.77;;;5.32;;
84254;SDS011;74400;44.692;18.998;2024-02-28T05:09:50;11.07;;;4.80;;
84254;SDS011;74400;44.692;18.998;2024-02-28T05:12:16;9.93;;;4.63;;
84254;SDS011;74400;44.692;18.998;2024-02-28T05:14:42;6.80;;;4.13;;
84254;SDS011;74400;44.692;18.998;2024-02-28T05:17:08;8.13;;;4.60;;
84254;SDS011;74400;44.692;18.998;2024-02-28T05:19:33;9.90;;;4.72;;
84254;SDS011;74400;44.692;18.998;2024-02-28T05:21:59;7.45;;;4.60;;
84254;SDS011;74400;44.692;18.998;2024-02-28T05:24:26;10.18;;;5.05;;
84254;SDS011;74400;44.692;18.998;2024-02-28T05:26:51;16.27;;;6.32;;
84254;SDS011;74400;44.692;18.998;2024-02-28T05:29:17;11.02;;;5.10;;
84254;SDS011;74400;44.692;18.998;2024-02-28T05:31:43;12.25;;;5.45;;
84254;SDS011;74400;44.692;18.998;2024-02-28T05:34:08;12.65;;;5.38;;
84254;SDS011;74400;44.692;18.998;2024-02-28T05:36:34;13.00;;;5.88;;
84254;SDS011;74400;44.692;18.998;2024-02-28T05:39:00;12.70;;;6.20;;
84254;SDS011;74400;44.692;18.998;2024-02-28T05:41:27;10.93;;;6.43;;
84254;SDS011;74400;44.692;18.998;2024-02-28T05:43:52;12.35;;;6.25;;
84254;SDS011;74400;44.692;18.998;2024-02-28T05:46:18;14.27;;;5.72;;
84254;SDS011;74400;44.692;18.998;2024-02-28T05:48:48;13.40;;;5.63;;
84254;SDS011;74400;44.692;18.998;2024-02-28T05:51:13;8.57;;;5.63;;
84254;SDS011;74400;44.692;18.998;2024-02-28T05:53:39;17.15;;;8.68;;
84254;SDS011;74400;44.692;18.998;2024-02-28T05:56:09;15.98;;;7.70;;
84254;SDS011;74400;44.692;18.998;2024-02-28T05:58:46;17.67;;;7.10;;
84254;SDS011;74400;44.692;18.998;2024-02-28T06:01:16;13.80;;;7.35;;
84254;SDS011;74400;44.692;18.998;2024-02-28T06:03:57;13.70;;;7.32;;
84254;SDS011;74400;44.692;18.998;2024-02-28T06:06:23;14.25;;;7.13;;
84254;SDS011;74400;44.692;18.998;2024-02-28T06:08:51;9.82;;;5.95;;
84254;SDS011;74400;44.692;18.998;2024-02-28T06:14:53;14.90;;;8.77;;
84254;SDS011;74400;44.692;18.998;2024-02-28T06:17:20;15.30;;;8.27;;
